sensor_id;sensor_type;location;lat;lon;timestamp;P1;durP1;ratioP1;P2;durP2;ratioP2
1390;SDS011;690;51.454;7.194;2023-03-12T00:01:10;9.27;;;4.82;;
1390;SDS011;690;51.454;7.194;2023-03-12T00:03:41;7.32;;;4.68;;
1390;SDS011;690;51.454;7.194;2023-03-12T00:06:08;5.93;;;4.57;;
1390;SDS011;690;51.454;7.194;2023-03-12T00:08:35;9.40;;;5.30;;
1390;SDS011;690;51.454;7.194;2023-03-12T00:11:04;7.63;;;5.13;;
1390;SDS011;690;51.454;7.194;2023-03-12T00:13:32;8.13;;;4.78;;
1390;SDS011;690;51.454;7.194;2023-03-12T00:16:03;6.57;;;4.78;;
1390;SDS011;690;51.454;7.194;2023-03-12T00:18:31;5.20;;;4.50;;
1390;SDS011;690;51.454;7.194;2023-03-12T00:20:58;5.20;;;4.50;;
1390;SDS011;690;51.454;7.194;2023-03-12T00:23:25;8.95;;;4.60;;
1390;SDS011;690;51.454;7.194;2023-03-12T00:25:52;9.00;;;5.10;;
1390;SDS011;690;51.454;7.194;2023-03-12T00:28:19;4.55;;;4.15;;
1390;SDS011;690;51.454;7.194;2023-03-12T00:30:46;5.35;;;4.22;;
1390;SDS011;690;51.454;7.194;2023-03-12T00:33:14;6.38;;;4.43;;
1390;SDS011;690;51.454;7.194;2023-03-12T00:35:41;8.43;;;4.60;;
1390;SDS011;690;51.454;7.194;2023-03-12T00:38:08;5.38;;;4.53;;
1390;SDS011;690;51.454;7.194;2023-03-12T00:40:35;10.00;;;4.30;;
1390;SDS011;690;51.454;7.194;2023-03-12T00:43:03;25.95;;;5.00;;
1390;SDS011;690;51.454;7.194;2023-03-12T00:45:30;8.65;;;4.70;;
1390;SDS011;690;51.454;7.194;2023-03-12T00:47:57;4.50;;;4.07;;
1390;SDS011;690;51.454;7.194;2023-03-12T00:50:25;7.75;;;4.45;;
1390;SDS011;690;51.454;7.194;2023-03-12T00:52:52;5.95;;;4.05;;
1390;SDS011;690;51.454;7.194;2023-03-12T00:55:18;5.85;;;3.35;;
1390;SDS011;690;51.454;7.194;2023-03-12T00:57:45;12.98;;;3.75;;
1390;SDS011;690;51.454;7.194;2023-03-12T01:00:14;8.13;;;4.03;;
1390;SDS011;690;51.454;7.194;2023-03-12T01:02:41;7.53;;;3.50;;
1390;SDS011;690;51.454;7.194;2023-03-12T01:05:09;4.65;;;3.60;;
1390;SDS011;690;51.454;7.194;2023-03-12T01:07:41;8.88;;;4.03;;
1390;SDS011;690;51.454;7.194;2023-03-12T01:10:08;4.43;;;3.65;;
1390;SDS011;690;51.454;7.194;2023-03-12T01:12:39;4.28;;;3.38;;
1390;SDS011;690;51.454;7.194;2023-03-12T01:15:06;7.05;;;3.50;;
1390;SDS011;690;51.454;7.194;2023-03-12T01:17:33;4.13;;;3.72;;
1390;SDS011;690;51.454;7.194;2023-03-12T01:20:00;3.55;;;3.00;;
1390;SDS011;690;51.454;7.194;2023-03-12T01:22:27;4.13;;;3.60;;
1390;SDS011;690;51.454;7.194;2023-03-12T01:24:56;4.70;;;3.10;;
1390;SDS011;690;51.454;7.194;2023-03-12T01:27:22;10.20;;;4.15;;
1390;SDS011;690;51.454;7.194;2023-03-12T01:29:49;4.20;;;3.72;;
1390;SDS011;690;51.454;7.194;2023-03-12T01:32:16;6.70;;;3.33;;
1390;SDS011;690;51.454;7.194;2023-03-12T01:34:43;6.60;;;2.80;;
1390;SDS011;690;51.454;7.194;2023-03-12T01:37:10;4.57;;;2.70;;
1390;SDS011;690;51.454;7.194;2023-03-12T01:39:37;3.72;;;2.60;;
1390;SDS011;690;51.454;7.194;2023-03-12T01:42:05;5.38;;;3.00;;
1390;SDS011;690;51.454;7.194;2023-03-12T01:44:47;4.10;;;2.70;;
1390;SDS011;690;51.454;7.194;2023-03-12T01:47:15;5.25;;;2.40;;
1390;SDS011;690;51.454;7.194;2023-03-12T01:49:42;4.88;;;3.17;;
1390;SDS011;690;51.454;7.194;2023-03-12T01:52:11;6.63;;;2.97;;
1390;SDS011;690;51.454;7.194;2023-03-12T01:54:40;3.42;;;2.70;;
1390;SDS011;690;51.454;7.194;2023-03-12T01:57:12;5.80;;;3.10;;
1390;SDS011;690;51.454;7.194;2023-03-12T01:59:43;5.68;;;2.90;;
1390;SDS011;690;51.454;7.194;2023-03-12T02:02:12;3.38;;;2.33;;
1390;SDS011;690;51.454;7.194;2023-03-12T02:04:40;4.20;;;2.53;;
1390;SDS011;690;51.454;7.194;2023-03-12T02:07:11;9.38;;;2.88;;
1390;SDS011;690;51.454;7.194;2023-03-12T02:09:40;4.50;;;2.90;;
1390;SDS011;690;51.454;7.194;2023-03-12T02:12:08;4.10;;;2.42;;
1390;SDS011;690;51.454;7.194;2023-03-12T02:14:36;3.53;;;2.30;;
1390;SDS011;690;51.454;7.194;2023-03-12T02:17:04;5.82;;;3.00;;
1390;SDS011;690;51.454;7.194;2023-03-12T02:19:33;8.45;;;3.20;;
1390;SDS011;690;51.454;7.194;2023-03-12T02:22:09;7.80;;;3.40;;
1390;SDS011;690;51.454;7.194;2023-03-12T02:24:37;3.70;;;2.42;;
1390;SDS011;690;51.454;7.194;2023-03-12T02:27:10;8.55;;;2.70;;
1390;SDS011;690;51.454;7.194;2023-03-12T02:29:37;5.60;;;2.00;;
1390;SDS011;690;51.454;7.194;2023-03-12T02:32:07;4.28;;;2.70;;
1390;SDS011;690;51.454;7.194;2023-03-12T02:34:40;6.13;;;2.72;;
1390;SDS011;690;51.454;7.194;2023-03-12T02:37:07;5.53;;;2.40;;
1390;SDS011;690;51.454;7.194;2023-03-12T02:39:34;4.22;;;2.42;;
1390;SDS011;690;51.454;7.194;2023-03-12T02:42:02;2.42;;;2.10;;
1390;SDS011;690;51.454;7.194;2023-03-12T02:44:31;3.28;;;1.90;;
1390;SDS011;690;51.454;7.194;2023-03-12T02:47:01;3.08;;;2.40;;
1390;SDS011;690;51.454;7.194;2023-03-12T02:49:28;3.80;;;2.22;;
1390;SDS011;690;51.454;7.194;2023-03-12T02:51:57;4.05;;;2.28;;
1390;SDS011;690;51.454;7.194;2023-03-12T02:54:24;3.67;;;2.65;;
1390;SDS011;690;51.454;7.194;2023-03-12T02:56:51;3.83;;;2.25;;
1390;SDS011;690;51.454;7.194;2023-03-12T02:59:18;4.53;;;2.70;;
1390;SDS011;690;51.454;7.194;2023-03-12T03:01:47;9.48;;;5.97;;
1390;SDS011;690;51.454;7.194;2023-03-12T03:04:19;7.82;;;4.53;;
1390;SDS011;690;51.454;7.194;2023-03-12T03:06:46;4.72;;;3.10;;
1390;SDS011;690;51.454;7.194;2023-03-12T03:09:13;6.43;;;2.38;;
1390;SDS011;690;51.454;7.194;2023-03-12T03:11:40;5.00;;;2.25;;
1390;SDS011;690;51.454;7.194;2023-03-12T03:14:07;5.55;;;2.65;;
1390;SDS011;690;51.454;7.194;2023-03-12T03:16:36;5.40;;;2.15;;
1390;SDS011;690;51.454;7.194;2023-03-12T03:19:06;5.88;;;2.58;;
1390;SDS011;690;51.454;7.194;2023-03-12T03:21:33;6.13;;;2.75;;
1390;SDS011;690;51.454;7.194;2023-03-12T03:24:02;2.45;;;2.08;;
1390;SDS011;690;51.454;7.194;2023-03-12T03:26:30;3.63;;;2.45;;
1390;SDS011;690;51.454;7.194;2023-03-12T03:28:57;5.20;;;2.80;;
1390;SDS011;690;51.454;7.194;2023-03-12T03:31:24;4.68;;;2.97;;
1390;SDS011;690;51.454;7.194;2023-03-12T03:33:51;7.03;;;2.80;;
1390;SDS011;690;51.454;7.194;2023-03-12T03:36:19;3.97;;;2.20;;
1390;SDS011;690;51.454;7.194;2023-03-12T03:38:47;3.78;;;2.15;;
1390;SDS011;690;51.454;7.194;2023-03-12T03:41:15;3.80;;;2.10;;
1390;SDS011;690;51.454;7.194;2023-03-12T03:43:42;4.63;;;1.98;;
1390;SDS011;690;51.454;7.194;2023-03-12T03:46:10;8.82;;;2.60;;
1390;SDS011;690;51.454;7.194;2023-03-12T03:48:38;4.10;;;2.23;;
1390;SDS011;690;51.454;7.194;2023-03-12T03:51:06;2.78;;;2.15;;
1390;SDS011;690;51.454;7.194;2023-03-12T03:53:36;3.30;;;2.28;;
1390;SDS011;690;51.454;7.194;2023-03-12T03:56:04;3.60;;;2.70;;
1390;SDS011;690;51.454;7.194;2023-03-12T03:58:32;5.95;;;2.55;;
1390;SDS011;690;51.454;7.194;2023-03-12T04:00:59;3.45;;;2.33;;
1390;SDS011;690;51.454;7.194;2023-03-12T04:03:26;2.28;;;1.95;;
1390;SDS011;690;51.454;7.194;2023-03-12T04:05:53;7.05;;;2.30;;
1390;SDS011;690;51.454;7.194;2023-03-12T04:08:21;3.72;;;2.13;;
1390;SDS011;690;51.454;7.194;2023-03-12T04:10:49;5.75;;;2.40;;
1390;SDS011;690;51.454;7.194;2023-03-12T04:13:16;5.70;;;2.30;;
1390;SDS011;690;51.454;7.194;2023-03-12T04:15:46;4.93;;;2.30;;
1390;SDS011;690;51.454;7.194;2023-03-12T04:18:14;4.13;;;2.78;;
1390;SDS011;690;51.454;7.194;2023-03-12T04:20:41;3.15;;;2.10;;
1390;SDS011;690;51.454;7.194;2023-03-12T04:23:09;5.05;;;2.40;;
1390;SDS011;690;51.454;7.194;2023-03-12T04:25:36;3.78;;;2.53;;
1390;SDS011;690;51.454;7.194;2023-03-12T04:28:04;3.05;;;2.58;;
1390;SDS011;690;51.454;7.194;2023-03-12T04:30:31;3.22;;;1.85;;
1390;SDS011;690;51.454;7.194;2023-03-12T04:32:58;4.85;;;2.33;;
1390;SDS011;690;51.454;7.194;2023-03-12T04:35:25;2.85;;;1.85;;
1390;SDS011;690;51.454;7.194;2023-03-12T04:37:52;2.50;;;2.05;;
1390;SDS011;690;51.454;7.194;2023-03-12T04:40:19;4.95;;;2.22;;
1390;SDS011;690;51.454;7.194;2023-03-12T04:42:46;3.80;;;2.75;;
1390;SDS011;690;51.454;7.194;2023-03-12T04:45:14;5.00;;;2.15;;
1390;SDS011;690;51.454;7.194;2023-03-12T04:47:41;4.75;;;1.90;;
1390;SDS011;690;51.454;7.194;2023-03-12T04:50:09;4.43;;;1.55;;
1390;SDS011;690;51.454;7.194;2023-03-12T04:52:36;5.00;;;2.63;;
1390;SDS011;690;51.454;7.194;2023-03-12T04:55:04;4.70;;;2.35;;
1390;SDS011;690;51.454;7.194;2023-03-12T04:57:31;3.70;;;2.00;;
1390;SDS011;690;51.454;7.194;2023-03-12T04:59:58;10.00;;;2.45;;
1390;SDS011;690;51.454;7.194;2023-03-12T05:02:26;9.35;;;2.25;;
1390;SDS011;690;51.454;7.194;2023-03-12T05:04:54;4.25;;;1.80;;
1390;SDS011;690;51.454;7.194;2023-03-12T05:07:21;2.97;;;1.95;;
1390;SDS011;690;51.454;7.194;2023-03-12T05:09:48;5.22;;;1.90;;
1390;SDS011;690;51.454;7.194;2023-03-12T05:12:15;6.43;;;2.05;;
1390;SDS011;690;51.454;7.194;2023-03-12T05:14:42;4.15;;;1.95;;
1390;SDS011;690;51.454;7.194;2023-03-12T05:17:09;4.00;;;1.80;;
1390;SDS011;690;51.454;7.194;2023-03-12T05:19:37;5.25;;;1.98;;
1390;SDS011;690;51.454;7.194;2023-03-12T05:22:04;6.22;;;2.10;;
1390;SDS011;690;51.454;7.194;2023-03-12T05:24:31;3.90;;;2.20;;
1390;SDS011;690;51.454;7.194;2023-03-12T05:26:57;7.57;;;2.60;;
1390;SDS011;690;51.454;7.194;2023-03-12T05:29:24;5.63;;;2.05;;
1390;SDS011;690;51.454;7.194;2023-03-12T05:31:51;8.40;;;2.40;;
1390;SDS011;690;51.454;7.194;2023-03-12T05:34:18;4.53;;;2.08;;
1390;SDS011;690;51.454;7.194;2023-03-12T05:36:46;4.60;;;2.00;;
1390;SDS011;690;51.454;7.194;2023-03-12T05:39:13;3.10;;;2.10;;
1390;SDS011;690;51.454;7.194;2023-03-12T05:41:40;5.50;;;2.20;;
1390;SDS011;690;51.454;7.194;2023-03-12T05:44:08;5.00;;;2.33;;
1390;SDS011;690;51.454;7.194;2023-03-12T05:46:36;2.80;;;2.42;;
1390;SDS011;690;51.454;7.194;2023-03-12T05:49:03;5.45;;;2.58;;
1390;SDS011;690;51.454;7.194;2023-03-12T05:51:30;3.53;;;2.17;;
1390;SDS011;690;51.454;7.194;2023-03-12T05:53:58;7.70;;;2.60;;
1390;SDS011;690;51.454;7.194;2023-03-12T05:56:26;2.60;;;2.00;;
1390;SDS011;690;51.454;7.194;2023-03-12T05:58:53;4.65;;;2.10;;
1390;SDS011;690;51.454;7.194;2023-03-12T06:01:22;3.40;;;2.43;;
1390;SDS011;690;51.454;7.194;2023-03-12T06:03:51;6.05;;;2.50;;
1390;SDS011;690;51.454;7.194;2023-03-12T06:06:18;3.17;;;2.33;;
1390;SDS011;690;51.454;7.194;2023-03-12T06:08:46;3.93;;;2.07;;
1390;SDS011;690;51.454;7.194;2023-03-12T06:11:14;3.40;;;1.90;;
1390;SDS011;690;51.454;7.194;2023-03-12T06:13:41;5.25;;;2.00;;
1390;SDS011;690;51.454;7.194;2023-03-12T06:16:10;3.65;;;2.20;;
1390;SDS011;690;51.454;7.194;2023-03-12T06:18:41;2.55;;;1.70;;
1390;SDS011;690;51.454;7.194;2023-03-12T06:21:09;5.35;;;1.70;;
1390;SDS011;690;51.454;7.194;2023-03-12T06:23:37;4.18;;;2.25;;
1390;SDS011;690;51.454;7.194;2023-03-12T06:26:04;4.63;;;2.15;;
1390;SDS011;690;51.454;7.194;2023-03-12T06:28:33;5.65;;;2.75;;
1390;SDS011;690;51.454;7.194;2023-03-12T06:31:00;4.88;;;2.15;;
1390;SDS011;690;51.454;7.194;2023-03-12T06:33:28;3.47;;;2.13;;
1390;SDS011;690;51.454;7.194;2023-03-12T06:35:55;5.47;;;2.85;;
1390;SDS011;690;51.454;7.194;2023-03-12T06:38:23;4.75;;;2.30;;
1390;SDS011;690;51.454;7.194;2023-03-12T06:40:54;5.80;;;2.37;;
1390;SDS011;690;51.454;7.194;2023-03-12T06:43:22;3.50;;;2.40;;
1390;SDS011;690;51.454;7.194;2023-03-12T06:45:50;2.63;;;2.23;;
1390;SDS011;690;51.454;7.194;2023-03-12T06:48:18;3.15;;;2.20;;
1390;SDS011;690;51.454;7.194;2023-03-12T06:50:45;4.85;;;2.53;;
1390;SDS011;690;51.454;7.194;2023-03-12T06:53:12;2.30;;;1.88;;
1390;SDS011;690;51.454;7.194;2023-03-12T06:55:39;6.32;;;2.50;;
1390;SDS011;690;51.454;7.194;2023-03-12T06:58:06;4.00;;;2.30;;
1390;SDS011;690;51.454;7.194;2023-03-12T07:00:33;6.45;;;2.80;;
1390;SDS011;690;51.454;7.194;2023-03-12T07:03:01;3.30;;;2.00;;
1390;SDS011;690;51.454;7.194;2023-03-12T07:05:28;4.80;;;2.13;;
1390;SDS011;690;51.454;7.194;2023-03-12T07:07:55;3.00;;;2.35;;
1390;SDS011;690;51.454;7.194;2023-03-12T07:10:22;3.47;;;2.20;;
1390;SDS011;690;51.454;7.194;2023-03-12T07:12:52;4.00;;;2.60;;
1390;SDS011;690;51.454;7.194;2023-03-12T07:15:19;3.63;;;2.40;;
1390;SDS011;690;51.454;7.194;2023-03-12T07:17:46;9.50;;;2.60;;
1390;SDS011;690;51.454;7.194;2023-03-12T07:20:14;4.73;;;2.60;;
1390;SDS011;690;51.454;7.194;2023-03-12T07:22:41;5.50;;;2.93;;
1390;SDS011;690;51.454;7.194;2023-03-12T07:25:08;4.55;;;2.75;;
1390;SDS011;690;51.454;7.194;2023-03-12T07:27:36;4.83;;;2.80;;
1390;SDS011;690;51.454;7.194;2023-03-12T07:30:03;3.83;;;2.80;;
1390;SDS011;690;51.454;7.194;2023-03-12T07:32:30;3.50;;;3.00;;
1390;SDS011;690;51.454;7.194;2023-03-12T07:34:59;4.50;;;2.53;;
1390;SDS011;690;51.454;7.194;2023-03-12T07:37:27;3.35;;;2.88;;
1390;SDS011;690;51.454;7.194;2023-03-12T07:39:54;4.03;;;2.90;;
1390;SDS011;690;51.454;7.194;2023-03-12T07:42:21;7.15;;;4.00;;
1390;SDS011;690;51.454;7.194;2023-03-12T07:44:48;5.00;;;3.10;;
1390;SDS011;690;51.454;7.194;2023-03-12T07:47:14;12.63;;;5.27;;
1390;SDS011;690;51.454;7.194;2023-03-12T07:49:41;6.93;;;3.90;;
1390;SDS011;690;51.454;7.194;2023-03-12T07:52:08;6.10;;;2.90;;
1390;SDS011;690;51.454;7.194;2023-03-12T07:54:37;4.57;;;3.23;;
1390;SDS011;690;51.454;7.194;2023-03-12T07:57:04;9.83;;;3.70;;
1390;SDS011;690;51.454;7.194;2023-03-12T07:59:31;4.70;;;3.57;;
1390;SDS011;690;51.454;7.194;2023-03-12T08:01:58;5.37;;;3.30;;
1390;SDS011;690;51.454;7.194;2023-03-12T08:04:25;5.03;;;3.57;;
1390;SDS011;690;51.454;7.194;2023-03-12T08:06:52;9.43;;;4.40;;
1390;SDS011;690;51.454;7.194;2023-03-12T08:09:22;7.80;;;4.00;;
1390;SDS011;690;51.454;7.194;2023-03-12T08:11:50;5.67;;;4.13;;
1390;SDS011;690;51.454;7.194;2023-03-12T08:14:17;3.60;;;3.30;;
1390;SDS011;690;51.454;7.194;2023-03-12T08:16:43;5.80;;;3.70;;
1390;SDS011;690;51.454;7.194;2023-03-12T08:19:10;4.60;;;2.97;;
1390;SDS011;690;51.454;7.194;2023-03-12T08:21:37;5.50;;;3.47;;
1390;SDS011;690;51.454;7.194;2023-03-12T08:24:04;4.40;;;3.30;;
1390;SDS011;690;51.454;7.194;2023-03-12T08:26:31;10.03;;;4.27;;
1390;SDS011;690;51.454;7.194;2023-03-12T08:28:59;8.20;;;3.60;;
1390;SDS011;690;51.454;7.194;2023-03-12T08:31:27;4.47;;;3.37;;
1390;SDS011;690;51.454;7.194;2023-03-12T08:33:54;5.37;;;4.00;;
1390;SDS011;690;51.454;7.194;2023-03-12T08:36:21;4.73;;;3.57;;
1390;SDS011;690;51.454;7.194;2023-03-12T08:38:48;5.27;;;3.67;;
1390;SDS011;690;51.454;7.194;2023-03-12T08:41:15;5.20;;;4.10;;
1390;SDS011;690;51.454;7.194;2023-03-12T08:43:41;4.57;;;3.60;;
1390;SDS011;690;51.454;7.194;2023-03-12T08:46:10;8.17;;;3.40;;
1390;SDS011;690;51.454;7.194;2023-03-12T08:48:36;5.03;;;3.43;;
1390;SDS011;690;51.454;7.194;2023-03-12T08:51:04;5.40;;;3.47;;
1390;SDS011;690;51.454;7.194;2023-03-12T08:53:32;8.07;;;4.00;;
1390;SDS011;690;51.454;7.194;2023-03-12T08:56:00;7.27;;;4.20;;
1390;SDS011;690;51.454;7.194;2023-03-12T08:58:27;5.30;;;3.33;;
1390;SDS011;690;51.454;7.194;2023-03-12T09:00:54;5.97;;;3.90;;
1390;SDS011;690;51.454;7.194;2023-03-12T09:03:23;10.33;;;4.63;;
1390;SDS011;690;51.454;7.194;2023-03-12T09:06:00;5.97;;;3.87;;
1390;SDS011;690;51.454;7.194;2023-03-12T09:08:28;3.70;;;3.30;;
1390;SDS011;690;51.454;7.194;2023-03-12T09:10:55;6.10;;;4.07;;
1390;SDS011;690;51.454;7.194;2023-03-12T09:13:21;5.50;;;3.50;;
1390;SDS011;690;51.454;7.194;2023-03-12T09:15:48;5.93;;;3.70;;
1390;SDS011;690;51.454;7.194;2023-03-12T09:18:15;6.70;;;4.17;;
1390;SDS011;690;51.454;7.194;2023-03-12T09:20:45;8.33;;;3.60;;
1390;SDS011;690;51.454;7.194;2023-03-12T09:23:12;4.47;;;3.73;;
1390;SDS011;690;51.454;7.194;2023-03-12T09:25:39;7.17;;;4.17;;
1390;SDS011;690;51.454;7.194;2023-03-12T09:28:09;4.37;;;3.63;;
1390;SDS011;690;51.454;7.194;2023-03-12T09:30:36;5.70;;;3.90;;
1390;SDS011;690;51.454;7.194;2023-03-12T09:33:03;4.47;;;3.60;;
1390;SDS011;690;51.454;7.194;2023-03-12T09:35:30;3.87;;;3.50;;
1390;SDS011;690;51.454;7.194;2023-03-12T09:37:59;5.00;;;4.13;;
1390;SDS011;690;51.454;7.194;2023-03-12T09:40:26;6.30;;;3.90;;
1390;SDS011;690;51.454;7.194;2023-03-12T09:42:56;5.53;;;3.73;;
1390;SDS011;690;51.454;7.194;2023-03-12T09:45:26;4.47;;;3.30;;
1390;SDS011;690;51.454;7.194;2023-03-12T09:47:56;4.50;;;3.63;;
1390;SDS011;690;51.454;7.194;2023-03-12T09:50:26;5.03;;;2.87;;
1390;SDS011;690;51.454;7.194;2023-03-12T09:52:57;4.97;;;3.17;;
1390;SDS011;690;51.454;7.194;2023-03-12T09:55:27;4.67;;;2.80;;
1390;SDS011;690;51.454;7.194;2023-03-12T09:58:01;4.73;;;2.80;;
1390;SDS011;690;51.454;7.194;2023-03-12T10:00:29;4.17;;;3.53;;
1390;SDS011;690;51.454;7.194;2023-03-12T10:03:08;5.30;;;3.00;;
1390;SDS011;690;51.454;7.194;2023-03-12T10:05:43;5.27;;;3.20;;
1390;SDS011;690;51.454;7.194;2023-03-12T10:08:15;2.97;;;2.77;;
1390;SDS011;690;51.454;7.194;2023-03-12T10:10:50;4.80;;;3.10;;
1390;SDS011;690;51.454;7.194;2023-03-12T10:13:39;5.00;;;3.17;;
1390;SDS011;690;51.454;7.194;2023-03-12T10:16:15;3.10;;;2.80;;
1390;SDS011;690;51.454;7.194;2023-03-12T10:18:58;5.27;;;3.20;;
1390;SDS011;690;51.454;7.194;2023-03-12T10:21:34;4.83;;;3.27;;
1390;SDS011;690;51.454;7.194;2023-03-12T10:24:09;3.57;;;3.27;;
1390;SDS011;690;51.454;7.194;2023-03-12T10:26:45;4.13;;;3.27;;
1390;SDS011;690;51.454;7.194;2023-03-12T10:29:15;3.47;;;3.17;;
1390;SDS011;690;51.454;7.194;2023-03-12T10:31:47;3.43;;;3.13;;
1390;SDS011;690;51.454;7.194;2023-03-12T10:34:20;6.40;;;4.20;;
1390;SDS011;690;51.454;7.194;2023-03-12T10:36:53;3.30;;;2.90;;
1390;SDS011;690;51.454;7.194;2023-03-12T10:39:25;3.50;;;3.20;;
1390;SDS011;690;51.454;7.194;2023-03-12T10:41:52;3.63;;;3.30;;
1390;SDS011;690;51.454;7.194;2023-03-12T10:44:21;4.40;;;3.33;;
1390;SDS011;690;51.454;7.194;2023-03-12T10:46:51;4.00;;;3.20;;
1390;SDS011;690;51.454;7.194;2023-03-12T10:49:33;4.67;;;2.73;;
1390;SDS011;690;51.454;7.194;2023-03-12T10:52:03;2.97;;;2.73;;
1390;SDS011;690;51.454;7.194;2023-03-12T10:54:35;4.70;;;3.03;;
1390;SDS011;690;51.454;7.194;2023-03-12T10:57:05;3.07;;;2.87;;
1390;SDS011;690;51.454;7.194;2023-03-12T10:59:33;4.87;;;3.53;;
1390;SDS011;690;51.454;7.194;2023-03-12T11:02:02;3.03;;;2.73;;
1390;SDS011;690;51.454;7.194;2023-03-12T11:04:49;4.57;;;3.03;;
1390;SDS011;690;51.454;7.194;2023-03-12T11:07:18;4.47;;;3.40;;
1390;SDS011;690;51.454;7.194;2023-03-12T11:10:03;4.23;;;3.40;;
1390;SDS011;690;51.454;7.194;2023-03-12T11:12:39;4.67;;;4.00;;
1390;SDS011;690;51.454;7.194;2023-03-12T11:15:21;4.20;;;3.53;;
1390;SDS011;690;51.454;7.194;2023-03-12T11:17:52;4.20;;;3.80;;
1390;SDS011;690;51.454;7.194;2023-03-12T11:20:53;4.87;;;3.90;;
1390;SDS011;690;51.454;7.194;2023-03-12T11:23:22;5.17;;;4.03;;
1390;SDS011;690;51.454;7.194;2023-03-12T11:25:54;4.33;;;3.53;;
1390;SDS011;690;51.454;7.194;2023-03-12T11:28:24;5.10;;;4.60;;
1390;SDS011;690;51.454;7.194;2023-03-12T11:30:57;5.03;;;4.50;;
1390;SDS011;690;51.454;7.194;2023-03-12T11:33:25;6.50;;;5.13;;
1390;SDS011;690;51.454;7.194;2023-03-12T11:35:57;5.30;;;4.60;;
1390;SDS011;690;51.454;7.194;2023-03-12T11:38:34;6.03;;;5.30;;
1390;SDS011;690;51.454;7.194;2023-03-12T11:41:09;8.83;;;6.60;;
1390;SDS011;690;51.454;7.194;2023-03-12T11:43:53;6.57;;;5.90;;
1390;SDS011;690;51.454;7.194;2023-03-12T11:46:31;11.63;;;7.83;;
1390;SDS011;690;51.454;7.194;2023-03-12T11:49:13;8.50;;;7.37;;
1390;SDS011;690;51.454;7.194;2023-03-12T11:51:51;10.57;;;8.17;;
1390;SDS011;690;51.454;7.194;2023-03-12T11:54:29;10.40;;;7.80;;
1390;SDS011;690;51.454;7.194;2023-03-12T11:57:11;9.87;;;8.40;;
1390;SDS011;690;51.454;7.194;2023-03-12T11:59:46;10.27;;;8.50;;
1390;SDS011;690;51.454;7.194;2023-03-12T12:02:29;10.57;;;9.50;;
1390;SDS011;690;51.454;7.194;2023-03-12T12:08:07;14.13;;;9.83;;
1390;SDS011;690;51.454;7.194;2023-03-12T12:10:48;11.50;;;9.80;;
1390;SDS011;690;51.454;7.194;2023-03-12T12:13:24;11.70;;;9.00;;
1390;SDS011;690;51.454;7.194;2023-03-12T12:15:58;13.00;;;9.80;;
1390;SDS011;690;51.454;7.194;2023-03-12T12:18:41;12.73;;;9.33;;
1390;SDS011;690;51.454;7.194;2023-03-12T12:21:24;13.77;;;9.33;;
1390;SDS011;690;51.454;7.194;2023-03-12T12:24:04;13.17;;;10.53;;
1390;SDS011;690;51.454;7.194;2023-03-12T12:26:45;12.80;;;10.23;;
1390;SDS011;690;51.454;7.194;2023-03-12T12:29:24;12.57;;;9.67;;
1390;SDS011;690;51.454;7.194;2023-03-12T12:32:00;15.47;;;10.97;;
1390;SDS011;690;51.454;7.194;2023-03-12T12:34:39;13.90;;;10.93;;
1390;SDS011;690;51.454;7.194;2023-03-12T12:37:37;12.93;;;10.37;;
1390;SDS011;690;51.454;7.194;2023-03-12T12:40:14;15.00;;;10.77;;
1390;SDS011;690;51.454;7.194;2023-03-12T12:42:48;12.97;;;10.40;;
1390;SDS011;690;51.454;7.194;2023-03-12T12:45:21;16.40;;;10.80;;
1390;SDS011;690;51.454;7.194;2023-03-12T12:47:52;12.77;;;10.53;;
1390;SDS011;690;51.454;7.194;2023-03-12T12:50:24;14.80;;;11.03;;
1390;SDS011;690;51.454;7.194;2023-03-12T12:52:58;13.53;;;10.97;;
1390;SDS011;690;51.454;7.194;2023-03-12T12:55:31;12.53;;;10.60;;
1390;SDS011;690;51.454;7.194;2023-03-12T12:58:06;13.87;;;11.03;;
1390;SDS011;690;51.454;7.194;2023-03-12T13:00:43;14.63;;;12.00;;
1390;SDS011;690;51.454;7.194;2023-03-12T13:03:14;15.57;;;11.43;;
1390;SDS011;690;51.454;7.194;2023-03-12T13:05:45;16.23;;;11.10;;
1390;SDS011;690;51.454;7.194;2023-03-12T13:08:33;17.87;;;13.33;;
1390;SDS011;690;51.454;7.194;2023-03-12T13:11:23;16.97;;;12.40;;
1390;SDS011;690;51.454;7.194;2023-03-12T13:16:40;19.80;;;14.37;;
1390;SDS011;690;51.454;7.194;2023-03-12T13:19:20;20.90;;;14.10;;
1390;SDS011;690;51.454;7.194;2023-03-12T13:21:53;16.30;;;13.27;;
1390;SDS011;690;51.454;7.194;2023-03-12T13:24:28;18.70;;;13.77;;
1390;SDS011;690;51.454;7.194;2023-03-12T13:26:59;20.03;;;14.03;;
1390;SDS011;690;51.454;7.194;2023-03-12T13:29:35;18.43;;;13.60;;
1390;SDS011;690;51.454;7.194;2023-03-12T13:32:06;23.73;;;15.47;;
1390;SDS011;690;51.454;7.194;2023-03-12T13:40:37;22.10;;;14.00;;
1390;SDS011;690;51.454;7.194;2023-03-12T13:46:26;21.27;;;14.47;;
1390;SDS011;690;51.454;7.194;2023-03-12T13:49:10;23.83;;;14.77;;
1390;SDS011;690;51.454;7.194;2023-03-12T13:51:44;22.80;;;15.23;;
1390;SDS011;690;51.454;7.194;2023-03-12T13:54:18;24.23;;;14.50;;
1390;SDS011;690;51.454;7.194;2023-03-12T13:56:53;33.20;;;15.50;;
1390;SDS011;690;51.454;7.194;2023-03-12T13:59:22;24.80;;;14.03;;
1390;SDS011;690;51.454;7.194;2023-03-12T14:01:52;18.13;;;13.37;;
1390;SDS011;690;51.454;7.194;2023-03-12T14:04:24;23.20;;;13.67;;
1390;SDS011;690;51.454;7.194;2023-03-12T14:07:02;21.30;;;13.03;;
1390;SDS011;690;51.454;7.194;2023-03-12T14:09:55;22.57;;;10.17;;
1390;SDS011;690;51.454;7.194;2023-03-12T14:12:30;17.60;;;11.47;;
1390;SDS011;690;51.454;7.194;2023-03-12T14:15:10;20.50;;;11.93;;
1390;SDS011;690;51.454;7.194;2023-03-12T14:17:53;22.87;;;10.63;;
1390;SDS011;690;51.454;7.194;2023-03-12T14:20:24;22.80;;;9.80;;
1390;SDS011;690;51.454;7.194;2023-03-12T14:22:53;26.23;;;10.90;;
1390;SDS011;690;51.454;7.194;2023-03-12T14:25:28;16.70;;;9.40;;
1390;SDS011;690;51.454;7.194;2023-03-12T14:27:59;18.37;;;10.27;;
1390;SDS011;690;51.454;7.194;2023-03-12T14:30:30;21.53;;;8.97;;
1390;SDS011;690;51.454;7.194;2023-03-12T14:33:05;27.47;;;9.87;;
1390;SDS011;690;51.454;7.194;2023-03-12T14:35:37;32.77;;;10.17;;
1390;SDS011;690;51.454;7.194;2023-03-12T14:38:10;19.13;;;9.27;;
1390;SDS011;690;51.454;7.194;2023-03-12T14:40:42;20.50;;;10.13;;
1390;SDS011;690;51.454;7.194;2023-03-12T14:43:18;19.20;;;9.57;;
1390;SDS011;690;51.454;7.194;2023-03-12T14:45:48;22.23;;;8.63;;
1390;SDS011;690;51.454;7.194;2023-03-12T14:48:19;20.17;;;9.30;;
1390;SDS011;690;51.454;7.194;2023-03-12T14:50:48;34.47;;;9.60;;
1390;SDS011;690;51.454;7.194;2023-03-12T14:53:17;21.80;;;9.77;;
1390;SDS011;690;51.454;7.194;2023-03-12T14:55:56;18.43;;;7.17;;
1390;SDS011;690;51.454;7.194;2023-03-12T14:58:24;19.60;;;8.90;;
1390;SDS011;690;51.454;7.194;2023-03-12T15:00:55;26.10;;;8.57;;
1390;SDS011;690;51.454;7.194;2023-03-12T15:03:23;16.90;;;7.77;;
1390;SDS011;690;51.454;7.194;2023-03-12T15:05:52;22.33;;;6.90;;
1390;SDS011;690;51.454;7.194;2023-03-12T15:08:20;15.40;;;6.40;;
1390;SDS011;690;51.454;7.194;2023-03-12T15:10:47;17.40;;;6.20;;
1390;SDS011;690;51.454;7.194;2023-03-12T15:13:15;19.17;;;6.40;;
1390;SDS011;690;51.454;7.194;2023-03-12T15:15:45;22.63;;;6.20;;
1390;SDS011;690;51.454;7.194;2023-03-12T15:18:14;18.70;;;6.07;;
1390;SDS011;690;51.454;7.194;2023-03-12T15:20:43;25.03;;;5.87;;
1390;SDS011;690;51.454;7.194;2023-03-12T15:23:12;16.43;;;6.10;;
1390;SDS011;690;51.454;7.194;2023-03-12T15:25:40;29.10;;;6.73;;
1390;SDS011;690;51.454;7.194;2023-03-12T15:28:23;18.43;;;6.70;;
1390;SDS011;690;51.454;7.194;2023-03-12T15:31:05;22.80;;;7.00;;
1390;SDS011;690;51.454;7.194;2023-03-12T15:33:35;24.90;;;7.53;;
1390;SDS011;690;51.454;7.194;2023-03-12T15:36:04;23.73;;;6.17;;
1390;SDS011;690;51.454;7.194;2023-03-12T15:38:44;28.70;;;9.40;;
1390;SDS011;690;51.454;7.194;2023-03-12T15:41:15;20.20;;;5.80;;
1390;SDS011;690;51.454;7.194;2023-03-12T15:43:45;27.30;;;6.30;;
1390;SDS011;690;51.454;7.194;2023-03-12T15:46:16;20.73;;;6.17;;
1390;SDS011;690;51.454;7.194;2023-03-12T15:48:45;25.67;;;7.67;;
1390;SDS011;690;51.454;7.194;2023-03-12T15:51:25;20.10;;;7.50;;
1390;SDS011;690;51.454;7.194;2023-03-12T15:54:02;19.67;;;6.20;;
1390;SDS011;690;51.454;7.194;2023-03-12T15:56:32;23.67;;;6.37;;
1390;SDS011;690;51.454;7.194;2023-03-12T15:59:02;26.60;;;6.63;;